createdAt,value
2019-05-25T00:01:06.775Z,32.10
2019-05-25T00:03:37.171Z,32.93
2019-05-25T00:06:07.540Z,28.90
2019-05-25T00:08:37.969Z,33.13
2019-05-25T00:11:08.303Z,30.12
2019-05-25T00:13:38.695Z,30.68
2019-05-25T00:16:09.030Z,26.87
2019-05-25T00:18:39.354Z,33.85
2019-05-25T00:21:09.685Z,33.67
2019-05-25T00:23:40.129Z,28.32
2019-05-25T00:26:10.467Z,31.25
2019-05-25T00:28:40.845Z,39.40
2019-05-25T00:31:11.217Z,37.13
2019-05-25T00:33:41.546Z,30.82
2019-05-25T00:36:11.922Z,30.32
2019-05-25T00:38:42.337Z,30.50
2019-05-25T00:41:12.681Z,36.58
2019-05-25T00:43:43.018Z,33.80
2019-05-25T00:46:13.358Z,26.50
2019-05-25T00:48:43.718Z,32.80
2019-05-25T00:51:14.124Z,31.93
2019-05-25T00:53:44.484Z,32.63
2019-05-25T00:56:14.835Z,30.57
2019-05-25T00:58:45.282Z,31.62
2019-05-25T01:01:15.649Z,31.80
2019-05-25T01:03:46.039Z,34.30
2019-05-25T01:06:16.446Z,34.98
2019-05-25T01:08:46.962Z,37.80
2019-05-25T01:11:17.307Z,35.05
2019-05-25T01:13:47.682Z,34.55
2019-05-25T01:16:18.013Z,38.30
2019-05-25T01:18:48.369Z,33.02
2019-05-25T01:21:18.743Z,29.30
2019-05-25T01:23:49.059Z,33.45
2019-05-25T01:26:19.423Z,31.05
2019-05-25T01:28:49.836Z,34.45
2019-05-25T01:31:20.210Z,35.08
2019-05-25T01:33:50.656Z,35.45
2019-05-25T01:36:21.045Z,32.75
2019-05-25T01:38:51.647Z,32.75
2019-05-25T01:41:21.998Z,31.85
2019-05-25T01:43:52.379Z,47.43
2019-05-25T01:46:22.696Z,44.67
2019-05-25T01:48:53.099Z,46.28
2019-05-25T01:51:23.465Z,32.80
2019-05-25T01:53:53.856Z,37.33
2019-05-25T01:56:24.230Z,36.30
2019-05-25T01:58:54.591Z,41.35
2019-05-25T02:01:24.934Z,36.58
2019-05-25T02:03:55.297Z,41.88
2019-05-25T02:06:25.680Z,42.58
2019-05-25T02:08:56.333Z,43.35
2019-05-25T02:11:26.702Z,44.20
2019-05-25T02:13:57.099Z,35.28
2019-05-25T02:16:27.519Z,42.65
2019-05-25T02:18:57.835Z,45.85
2019-05-25T02:21:28.228Z,45.92
2019-05-25T02:23:58.557Z,45.85
2019-05-25T02:26:28.933Z,45.12
2019-05-25T02:28:59.372Z,50.98
2019-05-25T02:31:29.831Z,47.03
2019-05-25T02:34:00.189Z,51.28
2019-05-25T02:36:30.632Z,53.23
2019-05-25T02:39:01.112Z,48.78
2019-05-25T02:41:31.456Z,49.05
2019-05-25T02:44:01.820Z,52.90
2019-05-25T02:46:32.185Z,50.88
2019-05-25T02:49:02.623Z,46.02
2019-05-25T02:51:32.984Z,45.33
2019-05-25T02:54:03.375Z,45.55
2019-05-25T02:56:33.761Z,48.85
2019-05-25T02:59:04.229Z,49.08
2019-05-25T03:01:35.013Z,52.67
2019-05-25T03:04:05.589Z,54.58
2019-05-25T03:06:36.651Z,51.58
2019-05-25T03:09:08.511Z,57.33
2019-05-25T03:11:40.575Z,51.33
2019-05-25T03:14:10.929Z,56.37
2019-05-25T03:16:41.305Z,53.80
2019-05-25T03:19:11.621Z,52.65
2019-05-25T03:21:42.020Z,55.35
2019-05-25T03:24:12.399Z,53.63
2019-05-25T03:26:42.732Z,56.37
2019-05-25T03:29:13.191Z,54.08
2019-05-25T03:31:43.542Z,57.08
2019-05-25T03:34:13.867Z,59.42
2019-05-25T03:36:44.528Z,50.20
2019-05-25T03:39:14.900Z,43.85
2019-05-25T03:41:45.211Z,44.38
2019-05-25T03:44:15.600Z,52.83
2019-05-25T03:46:45.925Z,55.23
2019-05-25T03:49:16.306Z,52.88
2019-05-25T03:51:46.734Z,53.90
2019-05-25T03:54:17.088Z,49.60
2019-05-25T03:56:47.407Z,52.23
2019-05-25T03:59:17.786Z,53.98
2019-05-25T04:01:48.107Z,54.23
2019-05-25T04:04:18.535Z,51.77
2019-05-25T04:06:49.305Z,53.10
2019-05-25T04:09:19.641Z,51.02
2019-05-25T04:11:50.001Z,48.95
2019-05-25T04:14:20.414Z,49.45
2019-05-25T04:16:50.763Z,45.90
2019-05-25T04:19:21.141Z,48.73
2019-05-25T04:21:51.511Z,47.95
2019-05-25T04:24:21.839Z,53.13
2019-05-25T04:26:52.671Z,54.15
2019-05-25T04:29:23.052Z,58.42
2019-05-25T04:31:53.348Z,55.75
2019-05-25T04:34:23.720Z,50.73
2019-05-25T04:36:54.451Z,59.73
2019-05-25T04:39:24.768Z,57.70
2019-05-25T04:41:55.098Z,56.37
2019-05-25T04:44:25.496Z,52.88
2019-05-25T04:46:55.793Z,51.45
2019-05-25T04:49:26.166Z,48.98
2019-05-25T04:51:56.650Z,49.55
2019-05-25T04:54:27.009Z,47.40
2019-05-25T04:56:57.398Z,43.78
2019-05-25T04:59:27.733Z,43.13
2019-05-25T05:01:58.140Z,42.95
2019-05-25T05:04:28.540Z,41.15
2019-05-25T05:06:59.046Z,39.50
2019-05-25T05:09:29.374Z,43.52
2019-05-25T05:12:00.073Z,42.80
2019-05-25T05:14:30.405Z,42.48
2019-05-25T05:17:00.710Z,45.90
2019-05-25T05:19:31.080Z,37.98
2019-05-25T05:22:01.436Z,42.15
2019-05-25T05:24:31.758Z,36.48
2019-05-25T05:27:02.256Z,40.23
2019-05-25T05:29:32.586Z,40.30
2019-05-25T05:32:03.034Z,38.50
2019-05-25T05:34:33.468Z,39.70
2019-05-25T05:37:05.427Z,42.38
2019-05-25T05:39:36.387Z,41.70
2019-05-25T05:42:08.321Z,37.20
2019-05-25T05:44:41.819Z,46.35
2019-05-25T05:47:15.490Z,45.12
2019-05-25T05:49:46.733Z,41.40
2019-05-25T05:52:19.484Z,40.35
2019-05-25T05:54:51.451Z,40.73
2019-05-25T05:57:22.244Z,38.92
2019-05-25T05:59:52.596Z,42.88
2019-05-25T06:02:22.924Z,43.65
2019-05-25T06:04:53.247Z,44.80
2019-05-25T06:07:27.234Z,48.40
2019-05-25T06:09:55.740Z,44.83
2019-05-25T06:12:26.147Z,43.78
2019-05-25T06:14:56.494Z,41.68
2019-05-25T06:17:26.804Z,47.95
2019-05-25T06:19:57.266Z,43.58
2019-05-25T06:22:27.622Z,46.75
2019-05-25T06:24:58.081Z,46.08
2019-05-25T06:27:28.414Z,45.05
2019-05-25T06:29:58.805Z,48.20
2019-05-25T06:32:29.132Z,44.53
2019-05-25T06:34:59.572Z,46.73
2019-05-25T06:37:30.118Z,45.12
2019-05-25T06:40:01.354Z,49.35
2019-05-25T06:42:31.676Z,48.75
2019-05-25T06:45:02.036Z,45.98
2019-05-25T06:47:32.388Z,45.75
2019-05-25T06:50:02.778Z,45.88
2019-05-25T06:52:33.156Z,49.80
2019-05-25T06:55:03.605Z,49.35
2019-05-25T06:57:42.588Z,45.30
2019-05-25T07:00:08.657Z,43.48
2019-05-25T07:02:39.085Z,44.50
2019-05-25T07:05:10.998Z,45.20
2019-05-25T07:07:41.601Z,50.60
2019-05-25T07:10:12.366Z,54.25
2019-05-25T07:12:42.756Z,43.42
2019-05-25T07:15:13.307Z,58.92
2019-05-25T07:17:43.711Z,52.43
2019-05-25T07:20:14.412Z,53.63
2019-05-25T07:22:44.769Z,51.92
2019-05-25T07:25:15.408Z,50.38
2019-05-25T07:27:58.264Z,56.25
2019-05-25T07:30:18.130Z,51.95
2019-05-25T07:43:15.340Z,48.83
2019-05-25T07:48:50.486Z,51.28
2019-05-25T07:51:20.793Z,51.98
2019-05-25T07:53:51.144Z,47.65
2019-05-25T07:56:21.400Z,48.00
2019-05-25T07:58:51.988Z,51.85
2019-05-25T08:01:22.257Z,50.38
2019-05-25T08:03:52.671Z,52.62
2019-05-25T08:06:22.974Z,48.13
2019-05-25T08:08:53.797Z,50.48
2019-05-25T08:11:24.064Z,52.33
2019-05-25T08:13:54.687Z,57.62
2019-05-25T08:16:24.940Z,58.28
2019-05-25T08:18:55.533Z,55.20
2019-05-25T08:21:25.798Z,51.95
2019-05-25T08:23:56.191Z,55.15
2019-05-25T08:26:26.637Z,58.48
2019-05-25T08:28:57.398Z,60.90
2019-05-25T08:31:27.637Z,63.00
2019-05-25T08:33:58.032Z,61.98
2019-05-25T08:36:29.862Z,57.90
2019-05-25T08:39:00.294Z,51.40
2019-05-25T08:41:30.563Z,54.05
2019-05-25T08:44:04.262Z,62.53
2019-05-25T08:46:32.860Z,54.23
2019-05-25T08:49:03.148Z,52.05
2019-05-25T08:51:33.715Z,37.20
2019-05-25T08:54:03.961Z,39.38
2019-05-25T08:56:34.256Z,39.45
2019-05-25T08:59:05.073Z,38.17
2019-05-25T09:01:35.344Z,40.35
2019-05-25T09:04:05.626Z,35.55
2019-05-25T09:06:35.953Z,36.40
2019-05-25T09:09:08.133Z,28.55
2019-05-25T09:11:38.490Z,28.20
2019-05-25T09:14:08.798Z,33.10
2019-05-25T09:16:39.154Z,31.45
2019-05-25T09:19:09.504Z,30.45
2019-05-25T09:21:39.939Z,27.77
2019-05-25T09:24:10.271Z,29.75
2019-05-25T09:26:40.679Z,31.17
2019-05-25T09:29:11.461Z,33.55
2019-05-25T09:31:41.841Z,29.98
2019-05-25T09:34:12.175Z,27.95
2019-05-25T09:36:42.530Z,27.93
2019-05-25T09:39:12.833Z,27.58
2019-05-25T09:41:43.207Z,28.75
2019-05-25T09:44:13.587Z,31.05
2019-05-25T09:46:43.943Z,26.52
2019-05-25T09:49:14.342Z,21.97
2019-05-25T09:51:44.617Z,20.48
2019-05-25T09:54:14.934Z,25.72
2019-05-25T09:56:45.339Z,20.77
2019-05-25T09:59:20.011Z,19.45
2019-05-25T10:01:48.015Z,20.02
2019-05-25T10:04:18.338Z,18.02
2019-05-25T10:06:48.805Z,20.37
2019-05-25T10:09:19.521Z,18.10
2019-05-25T10:11:50.316Z,14.33
2019-05-25T10:14:21.496Z,15.25
2019-05-25T10:16:51.916Z,16.73
2019-05-25T10:19:22.397Z,16.00
2019-05-25T10:21:52.711Z,15.68
2019-05-25T10:24:23.234Z,15.30
2019-05-25T10:26:53.689Z,16.85
2019-05-25T10:29:36.603Z,16.20
2019-05-25T10:31:56.577Z,17.23
2019-05-25T10:34:26.891Z,15.78
2019-05-25T10:36:57.262Z,18.17
2019-05-25T10:39:27.654Z,15.93
2019-05-25T10:41:58.010Z,15.30
2019-05-25T10:44:28.544Z,15.18
2019-05-25T10:46:58.959Z,17.30
2019-05-25T10:49:29.464Z,18.17
2019-05-25T10:51:59.843Z,18.75
2019-05-25T10:54:30.192Z,20.00
2019-05-25T10:57:00.618Z,18.98
2019-05-25T10:59:32.337Z,20.75
2019-05-25T11:02:02.708Z,18.90
2019-05-25T11:04:33.255Z,22.77
2019-05-25T11:07:03.626Z,20.00
2019-05-25T11:09:34.040Z,19.95
2019-05-25T11:12:04.397Z,19.10
2019-05-25T11:14:34.763Z,23.22
2019-05-25T11:17:05.272Z,19.65
2019-05-25T11:19:35.784Z,23.20
2019-05-25T11:22:06.230Z,22.60
2019-05-25T11:24:36.643Z,22.13
2019-05-25T11:27:07.154Z,21.37
2019-05-25T11:29:37.891Z,24.23
2019-05-25T11:32:08.539Z,24.47
2019-05-25T11:34:39.280Z,21.20
2019-05-25T11:37:09.733Z,20.43
2019-05-25T11:39:40.079Z,24.80
2019-05-25T11:42:10.413Z,25.95
2019-05-25T11:44:40.889Z,21.97
2019-05-25T11:47:11.267Z,21.75
2019-05-25T11:49:41.654Z,27.58
2019-05-25T11:52:12.016Z,25.32
2019-05-25T11:54:42.420Z,23.98
2019-05-25T11:57:12.737Z,24.43
2019-05-25T11:59:43.336Z,23.80
2019-05-25T12:02:13.683Z,22.50
2019-05-25T12:04:44.047Z,22.37
2019-05-25T12:07:14.483Z,23.98
2019-05-25T12:09:44.912Z,23.92
2019-05-25T12:12:15.270Z,25.48
2019-05-25T12:14:45.628Z,26.68
2019-05-25T12:17:16.023Z,26.00
2019-05-25T12:19:46.504Z,28.15
2019-05-25T12:22:17.010Z,25.02
2019-05-25T12:24:47.435Z,24.10
2019-05-25T12:27:17.739Z,23.22
2019-05-25T12:29:48.093Z,27.65
2019-05-25T12:32:18.625Z,24.75
2019-05-25T12:34:48.944Z,29.37
2019-05-25T12:37:19.410Z,28.90
2019-05-25T12:39:49.754Z,26.55
2019-05-25T12:42:20.120Z,30.45
2019-05-25T12:44:50.479Z,29.67
2019-05-25T12:47:20.912Z,27.50
2019-05-25T12:49:51.417Z,29.87
2019-05-25T12:52:21.969Z,27.45
2019-05-25T12:54:52.386Z,28.62
2019-05-25T12:57:24.199Z,26.30
2019-05-25T12:59:54.895Z,30.17
2019-05-25T13:02:25.291Z,30.70
2019-05-25T13:04:55.634Z,29.30
2019-05-25T13:07:27.240Z,32.83
2019-05-25T13:09:57.617Z,28.20
2019-05-25T13:12:27.941Z,29.23
2019-05-25T13:14:58.508Z,28.17
2019-05-25T13:17:28.855Z,36.48
2019-05-25T13:19:59.225Z,27.15
2019-05-25T13:22:29.574Z,28.95
2019-05-25T13:24:59.970Z,30.37
2019-05-25T13:27:30.330Z,29.25
2019-05-25T13:30:03.288Z,30.85
2019-05-25T13:32:33.070Z,31.10
2019-05-25T13:35:03.600Z,35.63
2019-05-25T13:37:33.967Z,33.58
2019-05-25T13:40:04.384Z,34.27
2019-05-25T13:42:34.732Z,34.05
2019-05-25T13:45:06.269Z,34.78
2019-05-25T13:47:36.609Z,33.70
2019-05-25T13:50:08.478Z,34.55
2019-05-25T13:52:38.879Z,39.60
2019-05-25T13:55:11.358Z,37.35
2019-05-25T13:57:42.151Z,38.60
2019-05-25T14:00:13.063Z,40.65
2019-05-25T14:02:43.431Z,41.70
2019-05-25T14:05:15.001Z,40.38
2019-05-25T14:07:45.342Z,42.62
2019-05-25T14:10:15.823Z,47.70
2019-05-25T14:12:46.195Z,51.40
2019-05-25T14:15:16.880Z,52.85
2019-05-25T14:17:47.520Z,55.43
2019-05-25T14:20:17.965Z,54.73
2019-05-25T14:22:48.372Z,64.30
2019-05-25T14:25:18.750Z,60.05
2019-05-25T14:27:49.249Z,61.30
2019-05-25T14:30:19.700Z,64.92
2019-05-25T14:32:50.052Z,64.05
2019-05-25T14:35:20.427Z,60.52
2019-05-25T14:37:50.800Z,63.80
2019-05-25T14:40:21.347Z,57.35
2019-05-25T14:42:51.682Z,60.43
2019-05-25T14:45:22.102Z,61.20
2019-05-25T14:47:52.514Z,59.73
2019-05-25T14:50:22.838Z,52.80
2019-05-25T14:52:53.204Z,46.13
2019-05-25T14:55:23.599Z,42.43
2019-05-25T14:57:53.962Z,40.80
2019-05-25T15:00:24.353Z,45.52
2019-05-25T15:02:54.698Z,32.98
2019-05-25T15:05:25.019Z,30.48
2019-05-25T15:07:55.336Z,32.58
2019-05-25T15:10:25.694Z,40.73
2019-05-25T15:12:56.028Z,41.50
2019-05-25T15:15:26.351Z,39.95
2019-05-25T15:17:56.686Z,50.73
2019-05-25T15:20:27.031Z,46.77
2019-05-25T15:22:57.430Z,50.33
2019-05-25T15:25:27.773Z,47.75
2019-05-25T15:27:58.428Z,44.65
2019-05-25T15:30:28.747Z,42.13
2019-05-25T15:32:59.094Z,50.63
2019-05-25T15:35:29.440Z,47.88
2019-05-25T15:37:59.764Z,45.70
2019-05-25T15:40:30.139Z,46.68
2019-05-25T15:43:00.449Z,42.27
2019-05-25T15:45:30.805Z,41.10
2019-05-25T15:48:01.168Z,42.67
2019-05-25T15:50:31.534Z,32.63
2019-05-25T15:53:01.914Z,32.60
2019-05-25T15:55:32.257Z,28.05
2019-05-25T15:58:02.596Z,28.35
2019-05-25T16:00:51.247Z,26.33
2019-05-25T16:03:22.492Z,22.48
2019-05-25T16:05:52.919Z,39.83
2019-05-25T16:08:23.361Z,14.75
2019-05-25T16:10:53.699Z,15.30
2019-05-25T16:13:24.023Z,28.50
2019-05-25T16:15:54.435Z,21.62
2019-05-25T16:18:24.786Z,20.08
2019-05-25T16:20:55.205Z,17.48
2019-05-25T16:23:25.837Z,16.42
2019-05-25T16:25:56.508Z,16.35
2019-05-25T16:28:27.008Z,13.40
2019-05-25T16:30:57.360Z,15.70
2019-05-25T16:33:30.475Z,12.90
2019-05-25T16:36:02.927Z,9.98
2019-05-25T16:38:33.453Z,10.18
2019-05-25T16:41:03.868Z,8.73
2019-05-25T16:43:34.294Z,11.83
2019-05-25T16:46:06.586Z,9.50
2019-05-25T16:48:36.656Z,7.92
2019-05-25T16:51:09.852Z,9.38
2019-05-25T16:53:40.237Z,5.58
2019-05-25T16:56:11.160Z,8.70
2019-05-25T16:58:41.616Z,8.98
2019-05-25T17:01:12.034Z,4.33
2019-05-25T17:03:42.349Z,7.05
2019-05-25T17:06:12.903Z,7.58
2019-05-25T17:08:43.202Z,5.45
2019-05-25T17:11:13.809Z,8.63
2019-05-25T17:13:44.329Z,11.45
2019-05-25T17:16:14.764Z,10.45
2019-05-25T17:18:45.076Z,10.72
2019-05-25T17:21:15.408Z,9.35
2019-05-25T17:23:45.848Z,10.70
2019-05-25T17:26:16.162Z,9.63
2019-05-25T17:28:46.663Z,9.60
2019-05-25T17:31:16.993Z,13.80
2019-05-25T17:33:47.741Z,15.65
2019-05-25T17:36:18.135Z,9.10
2019-05-25T17:38:48.537Z,7.85
2019-05-25T17:41:18.858Z,12.70
2019-05-25T17:43:49.295Z,11.08
2019-05-25T17:46:19.690Z,9.25
2019-05-25T17:48:49.992Z,11.03
2019-05-25T17:51:20.351Z,11.18
2019-05-25T17:53:50.725Z,8.10
2019-05-25T17:56:21.046Z,11.78
2019-05-25T17:58:51.822Z,11.50
2019-05-25T18:01:22.178Z,10.68
2019-05-25T18:04:05.648Z,10.58
2019-05-25T18:06:24.591Z,9.83
2019-05-25T18:08:54.937Z,16.42
2019-05-25T18:11:25.310Z,12.82
2019-05-25T18:13:55.706Z,13.68
2019-05-25T18:16:26.128Z,13.08
2019-05-25T18:18:56.462Z,11.48
2019-05-25T18:21:26.840Z,10.25
2019-05-25T18:23:57.161Z,10.43
2019-05-25T18:26:27.538Z,12.23
2019-05-25T18:28:58.189Z,9.08
2019-05-25T18:31:28.555Z,10.30
2019-05-25T18:33:58.909Z,9.03
2019-05-25T18:36:29.387Z,8.93
2019-05-25T18:38:59.808Z,7.83
2019-05-25T18:41:30.196Z,8.68
2019-05-25T18:44:00.568Z,9.08
2019-05-25T18:46:30.909Z,8.63
2019-05-25T18:49:01.229Z,7.28
2019-05-25T18:51:31.576Z,10.98
2019-05-25T18:54:01.965Z,8.90
2019-05-25T18:56:32.281Z,9.83
2019-05-25T18:59:02.786Z,10.30
2019-05-25T19:01:33.172Z,10.00
2019-05-25T19:04:03.540Z,12.33
2019-05-25T19:06:33.895Z,10.63
2019-05-25T19:09:05.344Z,12.15
2019-05-25T19:11:36.104Z,12.15
2019-05-25T19:14:06.594Z,12.70
2019-05-25T19:16:36.903Z,11.03
2019-05-25T19:19:07.324Z,10.55
2019-05-25T19:21:37.678Z,13.93
2019-05-25T19:24:08.094Z,9.68
2019-05-25T19:26:38.409Z,14.20
2019-05-25T19:29:08.836Z,11.33
2019-05-25T19:31:39.295Z,12.07
2019-05-25T19:34:09.650Z,12.85
2019-05-25T19:36:40.067Z,14.00
2019-05-25T19:39:10.389Z,14.98
2019-05-25T19:41:40.756Z,11.75
2019-05-25T19:44:11.119Z,12.93
2019-05-25T19:46:41.469Z,12.55
2019-05-25T19:49:11.824Z,11.57
2019-05-25T19:51:42.285Z,11.68
2019-05-25T19:54:12.794Z,10.45
2019-05-25T19:56:43.479Z,12.33
2019-05-25T19:59:13.950Z,13.93
2019-05-25T20:01:44.323Z,12.93
2019-05-25T20:04:14.631Z,16.17
2019-05-25T20:06:45.059Z,10.20
2019-05-25T20:09:15.478Z,12.43
2019-05-25T20:11:45.894Z,12.45
2019-05-25T20:14:18.404Z,11.38
2019-05-25T20:16:48.623Z,13.48
2019-05-25T20:19:18.994Z,12.03
2019-05-25T20:21:49.371Z,12.63
2019-05-25T20:24:19.744Z,14.20
2019-05-25T20:26:50.054Z,13.43
2019-05-25T20:29:20.456Z,13.72
2019-05-25T20:31:50.826Z,13.85
2019-05-25T20:34:21.140Z,13.03
2019-05-25T20:36:51.501Z,12.50
2019-05-25T20:50:28.078Z,15.63
2019-05-25T20:52:58.494Z,15.83
2019-05-25T20:55:29.329Z,15.48
2019-05-25T20:58:04.377Z,13.30
2019-05-25T21:00:38.246Z,13.18
2019-05-25T21:03:09.015Z,11.88
2019-05-25T21:08:15.862Z,12.93
2019-05-25T21:10:46.603Z,15.48
2019-05-25T21:13:17.232Z,11.15
2019-05-25T21:15:48.576Z,12.53
2019-05-25T21:18:19.192Z,17.02
2019-05-25T21:20:50.165Z,13.43
2019-05-25T21:23:21.013Z,18.23
2019-05-25T21:25:53.428Z,12.90
2019-05-25T21:28:33.218Z,13.43
2019-05-25T21:31:04.002Z,16.70
2019-05-25T21:33:34.665Z,16.93
2019-05-25T21:36:08.699Z,17.25
2019-05-25T21:38:37.941Z,14.23
2019-05-25T21:41:08.737Z,14.50
2019-05-25T21:43:39.502Z,15.08
2019-05-25T21:46:10.275Z,15.55
2019-05-25T21:48:41.122Z,14.68
2019-05-25T21:51:11.896Z,13.83
2019-05-25T21:53:42.846Z,17.42
2019-05-25T21:56:13.777Z,13.60
2019-05-25T21:58:45.077Z,14.50
2019-05-25T22:01:16.945Z,14.50
2019-05-25T22:03:47.577Z,14.35
2019-05-25T22:06:24.408Z,13.85
2019-05-25T22:08:50.907Z,15.75
2019-05-25T22:11:21.857Z,17.35
2019-05-25T22:13:55.689Z,14.53
2019-05-25T22:16:26.422Z,18.15
2019-05-25T22:18:57.223Z,15.63
2019-05-25T22:21:28.178Z,18.25
2019-05-25T22:23:59.055Z,16.87
2019-05-25T22:26:31.235Z,16.40
2019-05-25T22:29:07.262Z,16.42
2019-05-25T22:31:40.093Z,15.65
2019-05-25T22:34:12.866Z,16.32
2019-05-25T22:36:43.743Z,14.68
2019-05-25T22:39:14.815Z,8.80
2019-05-25T22:41:45.674Z,13.62
2019-05-25T22:44:16.687Z,14.75
2019-05-25T22:46:47.490Z,13.35
2019-05-25T22:49:18.337Z,15.35
2019-05-25T22:51:49.321Z,16.70
2019-05-25T22:54:23.481Z,14.80
2019-05-25T22:56:56.114Z,15.93
2019-05-25T22:59:34.102Z,16.40
2019-05-25T23:02:04.938Z,15.72
2019-05-25T23:04:35.798Z,17.07
2019-05-25T23:07:09.114Z,17.73
2019-05-25T23:09:40.385Z,15.78
2019-05-25T23:12:16.479Z,16.23
2019-05-25T23:14:47.424Z,18.85
2019-05-25T23:17:18.179Z,14.68
2019-05-25T23:19:49.034Z,16.27
2019-05-25T23:22:19.729Z,17.67
2019-05-25T23:24:50.968Z,16.77
2019-05-25T23:27:21.853Z,19.15
2019-05-25T23:30:01.253Z,17.82
2019-05-25T23:32:32.093Z,19.25
2019-05-25T23:35:02.821Z,20.48
2019-05-25T23:37:33.390Z,20.27
2019-05-25T23:40:04.034Z,17.67
2019-05-25T23:42:34.729Z,19.00
2019-05-25T23:45:05.952Z,20.80
2019-05-25T23:47:36.675Z,20.72
2019-05-25T23:50:08.099Z,21.52
2019-05-25T23:52:38.707Z,20.60
2019-05-25T23:55:09.630Z,17.42
2019-05-25T23:57:47.856Z,20.68
